Time;durP1;ratioP1;P1;durP2;ratioP2;P2;SDS_P1;SDS_P2;PMS_P1;PMS_P2;Temp;Humidity;BMP_temperature;BMP_pressure;BME280_temperature;BME280_humidity;BME280_pressure;Samples;Min_cycle;Max_cycle;Signal;HPM_P1;HPM_P2
2023/04/30 00:00:30;;;;;;;;;;;;;;;;;;5048961;28;20395;-69
2023/04/30 00:02:57;;;;;;;;;;;;;;;;;;5019496;28;19976;-69
2023/04/30 00:05:25;;;;;;;;;;;;;;;;;;5035075;28;19932;-70
2023/04/30 00:07:52;;;;;;;;;;;;;;;;;;5028297;28;19925;-69
2023/04/30 00:10:19;;;;;;;;;;;;;;;;;;5033477;28;19924;-69
2023/04/30 00:12:46;;;;;;;;;;;;;;;;;;5033836;28;19929;-69
2023/04/30 00:15:13;;;;;;;;;;;;;;;;;;5025435;28;19933;-70
2023/04/30 00:17:40;;;;;;;;;;;;;;;;;;5035503;28;19924;-67
2023/04/30 00:20:07;;;;;;;;;;;;;;;;;;5029497;28;20015;-69
2023/04/30 00:22:34;;;;;;;;;;;;;;;;;;5034102;28;20016;-69
2023/04/30 00:25:01;;;;;;;;;;;;;;;;;;5035255;28;19929;-70
2023/04/30 00:27:30;;;;;;;;;;;;;;;;;;5037229;28;19924;-67
2023/04/30 00:29:57;;;;;;;;;;;;;;;;;;5030858;28;19933;-68
2023/04/30 00:32:24;;;;;;;;;;;;;;;;;;5027844;28;19925;-69
2023/04/30 00:34:51;;;;;;;;;;;;;;;;;;5050202;28;19925;-69
2023/04/30 00:37:18;;;;;;;;;;;;;;;;;;5031806;28;19925;-70
2023/04/30 00:39:46;;;;;;;;;;;;;;;;;;5035358;28;19924;-69
2023/04/30 00:42:13;;;;;;;;;;;;;;;;;;5027489;28;19932;-69
2023/04/30 00:44:40;;;;;;;;;;;;;;;;;;5034776;28;19924;-68
2023/04/30 00:47:07;;;;;;;;;;;;;;;;;;5032425;28;19928;-69
2023/04/30 00:49:34;;;;;;;;;;;;;;;;;;5027215;28;19925;-70
2023/04/30 00:52:01;;;;;;;;;;;;;;;;;;5021604;28;20355;-68
2023/04/30 00:54:28;;;;;;;;;;;;;;;;;;5028512;28;19925;-68
2023/04/30 00:56:55;;;;;;;;;;;;;;;;;;5021183;28;19925;-69
2023/04/30 00:59:23;;;;;;;;;;;;;;;;;;5032489;28;19979;-69
2023/04/30 01:01:50;;;;;;;;;;;;;;;;;;5025383;28;19925;-69
2023/04/30 01:04:17;;;;;;;;;;;;;;;;;;5030717;28;19925;-69
2023/04/30 01:06:45;;;;;;;;;;;;;;;;;;5024507;28;19925;-69
2023/04/30 01:09:12;;;;;;;;;;;;;;;;;;5031473;28;19978;-69
2023/04/30 01:11:39;;;;;;;;;;;;;;;;;;5023472;28;19979;-70
2023/04/30 01:14:07;;;;;;;;;;;;;;;;;;5023445;28;19925;-69
2023/04/30 01:16:34;;;;;;;;;;;;;;;;;;5017977;28;20299;-69
2023/04/30 01:19:02;;;;;;;;;;;;;;;;;;5029624;28;20346;-69
2023/04/30 01:21:29;;;;;;;;;;;;;;;;;;5043226;28;19998;-67
2023/04/30 01:23:56;;;;;;;;;;;;;;;;;;5034040;28;20351;-69
2023/04/30 01:26:23;;;;;;;;;;;;;;;;;;5033840;28;19979;-68
2023/04/30 01:28:50;;;;;;;;;;;;;;;;;;5044127;28;19924;-67
2023/04/30 01:31:17;;;;;;;;;;;;;;;;;;5031782;28;19925;-68
2023/04/30 01:33:45;;;;;;;;;;;;;;;;;;5027220;28;19925;-69
2023/04/30 01:36:12;;;;;;;;;;;;;;;;;;5032910;28;19929;-69
2023/04/30 01:38:39;;;;;;;;;;;;;;;;;;5028265;28;19929;-67
2023/04/30 01:41:06;;;;;;;;;;;;;;;;;;5033672;28;19932;-68
2023/04/30 01:43:33;;;;;;;;;;;;;;;;;;5050779;28;19925;-69
2023/04/30 01:46:00;;;;;;;;;;;;;;;;;;5025978;28;19940;-69
2023/04/30 01:48:27;;;;;;;;;;;;;;;;;;5030441;28;19975;-68
2023/04/30 01:50:54;;;;;;;;;;;;;;;;;;5028054;28;19959;-70
2023/04/30 01:53:21;;;;;;;;;;;;;;;;;;5033538;28;19978;-68
2023/04/30 01:55:48;;;;;;;;;;;;;;;;;;5028521;28;20311;-70
2023/04/30 01:58:15;;;;;;;;;;;;;;;;;;5025930;28;19932;-69
2023/04/30 02:00:43;;;;;;;;;;;;;;;;;;5029222;28;20408;-69
2023/04/30 02:03:10;;;;;;;;;;;;;;;;;;5026290;28;19931;-69
2023/04/30 02:05:37;;;;;;;;;;;;;;;;;;5029789;28;19925;-69
2023/04/30 02:08:04;;;;;;;;;;;;;;;;;;5027614;28;19962;-69
2023/04/30 02:10:31;;;;;;;;;;;;;;;;;;5030516;28;19926;-70
2023/04/30 02:12:58;;;;;;;;;;;;;;;;;;5028523;28;19928;-69
2023/04/30 02:15:26;;;;;;;;;;;;;;;;;;5023800;28;20346;-68
2023/04/30 02:17:53;;;;;;;;;;;;;;;;;;5029463;28;20015;-68
2023/04/30 02:20:20;;;;;;;;;;;;;;;;;;5025941;28;20351;-69
2023/04/30 02:22:47;;;;;;;;;;;;;;;;;;5031228;28;19925;-69
2023/04/30 02:25:14;;;;;;;;;;;;;;;;;;5033591;28;19929;-69
2023/04/30 02:27:41;;;;;;;;;;;;;;;;;;5031973;28;19933;-68
2023/04/30 02:30:10;;;;;;;;;;;;;;;;;;5026075;28;19925;-69
2023/04/30 02:32:37;;;;;;;;;;;;;;;;;;5032210;28;20374;-68
2023/04/30 02:35:04;;;;;;;;;;;;;;;;;;5033373;28;19932;-68
2023/04/30 02:37:31;;;;;;;;;;;;;;;;;;5033339;28;20350;-68
2023/04/30 02:39:58;;;;;;;;;;;;;;;;;;5030987;28;19974;-69
2023/04/30 02:42:25;;;;;;;;;;;;;;;;;;5032282;28;19932;-68
2023/04/30 02:44:53;;;;;;;;;;;;;;;;;;5025500;28;20465;-68
2023/04/30 02:47:20;;;;;;;;;;;;;;;;;;5029551;28;19925;-69
2023/04/30 02:49:47;;;;;;;;;;;;;;;;;;5025529;28;19924;-70
2023/04/30 02:52:14;;;;;;;;;;;;;;;;;;5033240;28;19975;-68
2023/04/30 02:54:41;;;;;;;;;;;;;;;;;;5033153;28;19925;-70
2023/04/30 02:57:08;;;;;;;;;;;;;;;;;;5028924;28;19928;-69
2023/04/30 02:59:36;;;;;;;;;;;;;;;;;;5023610;28;19925;-69
2023/04/30 03:02:03;;;;;;;;;;;;;;;;;;5052105;28;19928;-67
2023/04/30 03:04:30;;;;;;;;;;;;;;;;;;5035577;28;20421;-69
2023/04/30 03:06:59;;;;;;;;;;;;;;;;;;5030337;28;19978;-69
2023/04/30 03:09:26;;;;;;;;;;;;;;;;;;5036449;28;19931;-69
2023/04/30 03:11:53;;;;;;;;;;;;;;;;;;5036766;28;19928;-69
2023/04/30 03:14:20;;;;;;;;;;;;;;;;;;5033338;28;19925;-69
2023/04/30 03:16:47;;;;;;;;;;;;;;;;;;5025360;28;19925;-67
2023/04/30 03:19:14;;;;;;;;;;;;;;;;;;5026470;28;20384;-69
2023/04/30 03:21:42;;;;;;;;;;;;;;;;;;5038678;28;20369;-69
2023/04/30 03:24:09;;;;;;;;;;;;;;;;;;5029081;28;20408;-68
2023/04/30 03:26:36;;;;;;;;;;;;;;;;;;5027771;28;20364;-69
2023/04/30 03:29:03;;;;;;;;;;;;;;;;;;5034377;28;19925;-69
2023/04/30 03:31:30;;;;;;;;;;;;;;;;;;5039356;28;19925;-69
2023/04/30 03:33:57;;;;;;;;;;;;;;;;;;5036398;28;19925;-69
2023/04/30 03:36:24;;;;;;;;;;;;;;;;;;5052773;28;19975;-68
2023/04/30 03:38:51;;;;;;;;;;;;;;;;;;5031177;28;19952;-68
2023/04/30 03:41:18;;;;;;;;;;;;;;;;;;5018683;28;19956;-68
2023/04/30 03:43:45;;;;;;;;;;;;;;;;;;5028293;28;19932;-69
2023/04/30 03:46:12;;;;;;;;;;;;;;;;;;5023626;28;19925;-70
2023/04/30 03:48:39;;;;;;;;;;;;;;;;;;5028301;28;19925;-68
2023/04/30 03:51:08;;;;;;;;;;;;;;;;;;5032281;28;19928;-68
2023/04/30 03:53:35;;;;;;;;;;;;;;;;;;5027478;28;19924;-69
2023/04/30 03:56:02;;;;;;;;;;;;;;;;;;5030394;28;19925;-69
2023/04/30 03:58:29;;;;;;;;;;;;;;;;;;5052464;28;19925;-69
2023/04/30 04:00:57;;;;;;;;;;;;;;;;;;5035019;28;19925;-69
2023/04/30 04:03:24;;;;;;;;;;;;;;;;;;5032845;28;19936;-68
2023/04/30 04:05:51;;;;;;;;;;;;;;;;;;5028854;28;19932;-69
2023/04/30 04:08:18;;;;;;;;;;;;;;;;;;5034093;28;19964;-70
2023/04/30 04:10:45;;;;;;;;;;;;;;;;;;5035294;28;19979;-69
2023/04/30 04:13:12;;;;;;;;;;;;;;;;;;5031875;28;19925;-69
2023/04/30 04:15:39;;;;;;;;;;;;;;;;;;5044785;28;19932;-69
2023/04/30 04:18:07;;;;;;;;;;;;;;;;;;5027888;28;19967;-68
2023/04/30 04:20:34;;;;;;;;;;;;;;;;;;5052075;28;19975;-68
2023/04/30 04:23:01;;;;;;;;;;;;;;;;;;5031604;28;19931;-70
2023/04/30 04:25:28;;;;;;;;;;;;;;;;;;5033630;28;19925;-69
2023/04/30 04:27:55;;;;;;;;;;;;;;;;;;5022991;28;19929;-68
2023/04/30 04:30:22;;;;;;;;;;;;;;;;;;5028684;28;19968;-68
2023/04/30 04:32:52;;;;;;;;;;;;;;;;;;5050922;28;19925;-67
2023/04/30 04:35:20;;;;;;;;;;;;;;;;;;5035150;28;19925;-69
2023/04/30 04:37:47;;;;;;;;;;;;;;;;;;5029250;28;19979;-68
2023/04/30 04:40:14;;;;;;;;;;;;;;;;;;5029093;28;19925;-69
2023/04/30 04:42:41;;;;;;;;;;;;;;;;;;5034686;28;20307;-68
2023/04/30 04:45:08;;;;;;;;;;;;;;;;;;5035027;28;19986;-68
2023/04/30 04:47:36;;;;;;;;;;;;;;;;;;5034743;28;20358;-70
2023/04/30 04:50:03;;;;;;;;;;;;;;;;;;5051449;28;19925;-68
2023/04/30 04:52:30;;;;;;;;;;;;;;;;;;5034938;28;19932;-68
2023/04/30 04:54:57;;;;;;;;;;;;;;;;;;5044257;28;19925;-69
2023/04/30 04:57:25;;;;;;;;;;;;;;;;;;5032408;28;19936;-67
2023/04/30 04:59:52;;;;;;;;;;;;;;;;;;5029415;28;19925;-68
2023/04/30 05:02:20;;;;;;;;;;;;;;;;;;5021448;28;19979;-69
2023/04/30 05:04:49;;;;;;;;;;;;;;;;;;5023103;28;19929;-68
2023/04/30 05:07:16;;;;;;;;;;;;;;;;;;5029381;28;19925;-68
2023/04/30 05:09:43;;;;;;;;;;;;;;;;;;5030973;28;19924;-69
2023/04/30 05:12:10;;;;;;;;;;;;;;;;;;5050878;28;19975;-68
2023/04/30 05:14:37;;;;;;;;;;;;;;;;;;5032166;28;19952;-68
2023/04/30 05:17:04;;;;;;;;;;;;;;;;;;5024101;28;19965;-69
2023/04/30 05:19:32;;;;;;;;;;;;;;;;;;5021564;28;19929;-68
2023/04/30 05:22:00;;;;;;;;;;;;;;;;;;5029232;28;19986;-69
2023/04/30 05:24:27;;;;;;;;;;;;;;;;;;5028882;28;19925;-69
2023/04/30 05:26:54;;;;;;;;;;;;;;;;;;5033699;28;19925;-69
2023/04/30 05:29:21;;;;;;;;;;;;;;;;;;5028035;28;19925;-69
2023/04/30 05:31:48;;;;;;;;;;;;;;;;;;5033934;28;20407;-68
2023/04/30 05:34:15;;;;;;;;;;;;;;;;;;5033063;28;19987;-66
2023/04/30 05:36:43;;;;;;;;;;;;;;;;;;5025747;28;19925;-67
2023/04/30 05:39:10;;;;;;;;;;;;;;;;;;5025985;28;19925;-69
2023/04/30 05:41:37;;;;;;;;;;;;;;;;;;5025868;28;19924;-68
2023/04/30 05:44:05;;;;;;;;;;;;;;;;;;5027786;28;19924;-70
2023/04/30 05:46:32;;;;;;;;;;;;;;;;;;5032860;28;19947;-68
2023/04/30 05:48:59;;;;;;;;;;;;;;;;;;5034062;28;19925;-68
2023/04/30 05:51:26;;;;;;;;;;;;;;;;;;5026354;28;19932;-68
2023/04/30 05:53:53;;;;;;;;;;;;;;;;;;5024150;28;19925;-69
2023/04/30 05:56:21;;;;;;;;;;;;;;;;;;5028518;28;19987;-69
2023/04/30 05:58:49;;;;;;;;;;;;;;;;;;5021952;28;20015;-69
2023/04/30 06:01:18;;;;;;;;;;;;;;;;;;5033692;28;20327;-69
2023/04/30 06:03:45;;;;;;;;;;;;;;;;;;5033527;28;20008;-68
2023/04/30 06:06:12;;;;;;;;;;;;;;;;;;5032946;28;19924;-68
2023/04/30 06:08:41;;;;;;;;;;;;;;;;;;5048777;28;19925;-69
2023/04/30 06:11:08;;;;;;;;;;;;;;;;;;5014825;28;20014;-69
2023/04/30 06:13:35;;;;;;;;;;;;;;;;;;5019007;28;19929;-68
2023/04/30 06:16:02;;;;;;;;;;;;;;;;;;5029883;28;19925;-69
2023/04/30 06:18:29;;;;;;;;;;;;;;;;;;5035115;28;19926;-68
2023/04/30 06:20:56;;;;;;;;;;;;;;;;;;5016073;28;19925;-70
2023/04/30 06:23:23;;;;;;;;;;;;;;;;;;5023953;28;19928;-68
2023/04/30 06:25:50;;;;;;;;;;;;;;;;;;5019513;28;19952;-68
2023/04/30 06:28:17;;;;;;;;;;;;;;;;;;5028388;28;19925;-68
2023/04/30 06:30:45;;;;;;;;;;;;;;;;;;5021572;28;19929;-70
2023/04/30 06:33:12;;;;;;;;;;;;;;;;;;5043033;28;19931;-68
2023/04/30 06:35:39;;;;;;;;;;;;;;;;;;5025022;28;19924;-69
2023/04/30 06:38:06;;;;;;;;;;;;;;;;;;5041986;28;19925;-69
2023/04/30 06:40:33;;;;;;;;;;;;;;;;;;5023697;28;20002;-69
2023/04/30 06:43:01;;;;;;;;;;;;;;;;;;5040334;28;19979;-69
2023/04/30 06:45:28;;;;;;;;;;;;;;;;;;5041558;28;19929;-70
2023/04/30 06:47:55;;;;;;;;;;;;;;;;;;5024743;28;20432;-69
2023/04/30 06:50:22;;;;;;;;;;;;;;;;;;5035864;28;19925;-69
2023/04/30 06:52:49;;;;;;;;;;;;;;;;;;5034312;28;19929;-69
2023/04/30 06:55:16;;;;;;;;;;;;;;;;;;5025394;28;19924;-69
2023/04/30 06:57:43;;;;;;;;;;;;;;;;;;5018831;28;19929;-71
2023/04/30 07:00:11;;;;;;;;;;;;;;;;;;5020110;28;20343;-68
2023/04/30 07:02:38;;;;;;;;;;;;;;;;;;5027468;28;19925;-69
2023/04/30 07:05:05;;;;;;;;;;;;;;;;;;5026748;28;19933;-69
2023/04/30 07:07:33;;;;;;;;;;;;;;;;;;5022189;28;20359;-69
2023/04/30 07:10:00;;;;;;;;;;;;;;;;;;5018546;28;19978;-69
2023/04/30 07:12:27;;;;;;;;;;;;;;;;;;5028168;28;19987;-69
2023/04/30 07:14:54;;;;;;;;;;;;;;;;;;5041800;28;19933;-69
2023/04/30 07:17:21;;;;;;;;;;;;;;;;;;5018561;28;19974;-69
2023/04/30 07:19:49;;;;;;;;;;;;;;;;;;5039613;28;19925;-69
2023/04/30 07:22:16;;;;;;;;;;;;;;;;;;5044394;28;19983;-69
2023/04/30 07:24:43;;;;;;;;;;;;;;;;;;5046397;28;19956;-69
2023/04/30 07:27:10;;;;;;;;;;;;;;;;;;5022098;28;19925;-69
2023/04/30 07:29:37;;;;;;;;;;;;;;;;;;5034200;28;19932;-69
2023/04/30 07:32:04;;;;;;;;;;;;;;;;;;5020692;28;19929;-69
2023/04/30 07:34:31;;;;;;;;;;;;;;;;;;5024168;28;19925;-69
2023/04/30 07:36:58;;;;;;;;;;;;;;;;;;5024380;28;19925;-69
2023/04/30 07:39:25;;;;;;;;;;;;;;;;;;5041995;28;20391;-69
2023/04/30 07:41:52;;;;;;;;;;;;;;;;;;5026934;28;19940;-69
2023/04/30 07:44:20;;;;;;;;;;;;;;;;;;5037870;28;19937;-69
2023/04/30 07:46:47;;;;;;;;;;;;;;;;;;5039025;28;20292;-67
2023/04/30 07:49:14;;;;;;;;;;;;;;;;;;5036647;28;19940;-69
2023/04/30 07:51:42;;;;;;;;;;;;;;;;;;5033988;28;19924;-69
2023/04/30 07:54:09;;;;;;;;;;;;;;;;;;5038648;28;19964;-69
2023/04/30 07:56:36;;;;;;;;;;;;;;;;;;5022171;28;20363;-69
2023/04/30 07:59:03;;;;;;;;;;;;;;;;;;5027095;28;19982;-69
2023/04/30 08:01:30;;;;;;;;;;;;;;;;;;5027572;28;19979;-69
2023/04/30 08:03:57;;;;;;;;;;;;;;;;;;5015754;28;19925;-69
2023/04/30 08:06:26;;;;;;;;;;;;;;;;;;5034162;28;19929;-70
2023/04/30 08:08:53;;;;;;;;;;;;;;;;;;5018430;28;20016;-68
2023/04/30 08:11:20;;;;;;;;;;;;;;;;;;5040499;28;19951;-69
2023/04/30 08:13:47;;;;;;;;;;;;;;;;;;5038305;28;19929;-69
2023/04/30 08:16:14;;;;;;;;;;;;;;;;;;5018536;28;19925;-70
2023/04/30 08:18:43;;;;;;;;;;;;;;;;;;5016976;28;20024;-70
2023/04/30 08:21:10;;;;;;;;;;;;;;;;;;5031460;28;19932;-70
2023/04/30 08:23:37;;;;;;;;;;;;;;;;;;5046075;28;19971;-70
2023/04/30 08:26:05;;;;;;;;;;;;;;;;;;5025215;28;19925;-68
2023/04/30 08:28:32;;;;;;;;;;;;;;;;;;5027954;28;19925;-70
2023/04/30 08:30:59;;;;;;;;;;;;;;;;;;5029045;28;19925;-70
2023/04/30 08:33:26;;;;;;;;;;;;;;;;;;5031746;28;19924;-70
2023/04/30 08:35:53;;;;;;;;;;;;;;;;;;5030540;28;20343;-70
2023/04/30 08:38:20;;;;;;;;;;;;;;;;;;5032483;28;20023;-70
2023/04/30 08:40:47;;;;;;;;;;;;;;;;;;5027712;28;19961;-70
2023/04/30 08:43:15;;;;;;;;;;;;;;;;;;5018885;28;19925;-71
2023/04/30 08:45:42;;;;;;;;;;;;;;;;;;5042325;28;19925;-71
2023/04/30 08:48:09;;;;;;;;;;;;;;;;;;5021962;28;19984;-70
2023/04/30 08:50:36;;;;;;;;;;;;;;;;;;5028451;28;19924;-69
2023/04/30 08:53:03;;;;;;;;;;;;;;;;;;5024213;28;19928;-70
2023/04/30 08:55:30;;;;;;;;;;;;;;;;;;5018827;28;19925;-70
2023/04/30 08:57:57;;;;;;;;;;;;;;;;;;5039363;28;19925;-71
2023/04/30 09:00:25;;;;;;;;;;;;;;;;;;5020629;28;19926;-75
2023/04/30 09:02:52;;;;;;;;;;;;;;;;;;5043339;28;20016;-71
2023/04/30 09:05:19;;;;;;;;;;;;;;;;;;5025405;28;19925;-72
2023/04/30 09:07:47;;;;;;;;;;;;;;;;;;5033199;28;19929;-71
2023/04/30 09:10:14;;;;;;;;;;;;;;;;;;5022963;28;19925;-72
2023/04/30 09:12:42;;;;;;;;;;;;;;;;;;5029965;28;20281;-72
2023/04/30 09:15:09;;;;;;;;;;;;;;;;;;5029312;28;19925;-72
2023/04/30 09:17:36;;;;;;;;;;;;;;;;;;5027894;28;19963;-71
2023/04/30 09:20:03;;;;;;;;;;;;;;;;;;5027687;28;19956;-69
2023/04/30 09:22:31;;;;;;;;;;;;;;;;;;5033441;28;20394;-71
2023/04/30 09:24:58;;;;;;;;;;;;;;;;;;5029112;28;19928;-70
2023/04/30 09:27:25;;;;;;;;;;;;;;;;;;5031544;28;19928;-70
2023/04/30 09:29:52;;;;;;;;;;;;;;;;;;5034157;28;20346;-70
2023/04/30 09:32:19;;;;;;;;;;;;;;;;;;5032276;28;19924;-69
2023/04/30 09:34:46;;;;;;;;;;;;;;;;;;5032664;28;19925;-71
2023/04/30 09:37:14;;;;;;;;;;;;;;;;;;5033274;28;19978;-70
2023/04/30 09:39:41;;;;;;;;;;;;;;;;;;5031013;28;19925;-70
2023/04/30 09:42:09;;;;;;;;;;;;;;;;;;5029879;28;20347;-70
2023/04/30 09:44:36;;;;;;;;;;;;;;;;;;5026993;28;19924;-70
2023/04/30 09:47:03;;;;;;;;;;;;;;;;;;5029311;28;20389;-71
2023/04/30 09:49:30;;;;;;;;;;;;;;;;;;5023881;28;19925;-70
2023/04/30 09:51:57;;;;;;;;;;;;;;;;;;5027088;28;19932;-71
2023/04/30 09:54:25;;;;;;;;;;;;;;;;;;5030258;28;19925;-71
2023/04/30 09:56:52;;;;;;;;;;;;;;;;;;5029495;28;20446;-71
2023/04/30 09:59:19;;;;;;;;;;;;;;;;;;5029002;28;19925;-71
2023/04/30 10:01:46;;;;;;;;;;;;;;;;;;5028532;28;20350;-72
2023/04/30 10:04:13;;;;;;;;;;;;;;;;;;5033779;28;19974;-71
2023/04/30 10:06:40;;;;;;;;;;;;;;;;;;5029711;28;19932;-72
2023/04/30 10:09:07;;;;;;;;;;;;;;;;;;5027189;28;19944;-71
2023/04/30 10:11:34;;;;;;;;;;;;;;;;;;5033537;28;19925;-69
2023/04/30 10:14:01;;;;;;;;;;;;;;;;;;5033070;28;19925;-71
2023/04/30 10:16:28;;;;;;;;;;;;;;;;;;5037238;28;20028;-72
2023/04/30 10:18:56;;;;;;;;;;;;;;;;;;5054115;28;20406;-71
2023/04/30 10:21:23;;;;;;;;;;;;;;;;;;5037288;28;19924;-72
2023/04/30 10:23:50;;;;;;;;;;;;;;;;;;5034556;28;19932;-70
2023/04/30 10:26:17;;;;;;;;;;;;;;;;;;5034313;28;19929;-71
2023/04/30 10:28:44;;;;;;;;;;;;;;;;;;5032823;28;20330;-70
2023/04/30 10:31:12;;;;;;;;;;;;;;;;;;5030254;28;19925;-71
2023/04/30 10:33:39;;;;;;;;;;;;;;;;;;5025446;28;19925;-71
2023/04/30 10:36:07;;;;;;;;;;;;;;;;;;5033852;28;19929;-70
2023/04/30 10:38:35;;;;;;;;;;;;;;;;;;5028894;28;20382;-73
2023/04/30 10:41:02;;;;;;;;;;;;;;;;;;5034060;28;19943;-73
2023/04/30 10:43:29;;;;;;;;;;;;;;;;;;5034001;28;19925;-72
2023/04/30 10:45:56;;;;;;;;;;;;;;;;;;5035471;28;19928;-70
2023/04/30 10:48:25;;;;;;;;;;;;;;;;;;5037160;28;19928;-70
2023/04/30 10:50:52;;;;;;;;;;;;;;;;;;5035608;28;20392;-71
2023/04/30 10:53:19;;;;;;;;;;;;;;;;;;5032990;28;19925;-71
2023/04/30 10:55:47;;;;;;;;;;;;;;;;;;5037014;28;19925;-69
2023/04/30 10:58:14;;;;;;;;;;;;;;;;;;5034329;28;20038;-69
2023/04/30 11:00:41;;;;;;;;;;;;;;;;;;5033560;28;20407;-70
2023/04/30 11:03:08;;;;;;;;;;;;;;;;;;5036928;28;19929;-69
2023/04/30 11:05:36;;;;;;;;;;;;;;;;;;5034284;28;19924;-69
2023/04/30 11:08:03;;;;;;;;;;;;;;;;;;5033153;28;19933;-69
2023/04/30 11:10:30;;;;;;;;;;;;;;;;;;5029058;28;20334;-69
2023/04/30 11:12:57;;;;;;;;;;;;;;;;;;5032016;28;19924;-69
2023/04/30 11:15:24;;;;;;;;;;;;;;;;;;5028279;28;19975;-68
2023/04/30 11:17:51;;;;;;;;;;;;;;;;;;5032733;28;20347;-70
2023/04/30 11:20:19;;;;;;;;;;;;;;;;;;5029939;28;19940;-73
2023/04/30 11:22:46;;;;;;;;;;;;;;;;;;5033366;28;20358;-71
2023/04/30 11:25:13;;;;;;;;;;;;;;;;;;5035601;28;19931;-71
2023/04/30 11:27:40;;;;;;;;;;;;;;;;;;5026361;28;19925;-73
2023/04/30 11:30:07;;;;;;;;;;;;;;;;;;5031185;28;19925;-71
2023/04/30 11:32:35;;;;;;;;;;;;;;;;;;5030576;28;19924;-71
2023/04/30 11:35:03;;;;;;;;;;;;;;;;;;5031091;28;19978;-71
2023/04/30 11:37:30;;;;;;;;;;;;;;;;;;5032523;28;20280;-73
2023/04/30 11:39:57;;;;;;;;;;;;;;;;;;5026594;28;19956;-72
2023/04/30 11:42:24;;;;;;;;;;;;;;;;;;5028210;28;19975;-72
2023/04/30 11:44:51;;;;;;;;;;;;;;;;;;5020313;28;19941;-71
2023/04/30 11:47:18;;;;;;;;;;;;;;;;;;5032212;28;20336;-71
2023/04/30 11:49:45;;;;;;;;;;;;;;;;;;5030532;28;19956;-72
2023/04/30 11:52:12;;;;;;;;;;;;;;;;;;5026423;28;20419;-71
2023/04/30 11:54:39;;;;;;;;;;;;;;;;;;5030359;28;19924;-72
2023/04/30 11:57:06;;;;;;;;;;;;;;;;;;5024956;28;19956;-72
2023/04/30 11:59:33;;;;;;;;;;;;;;;;;;5031516;28;19986;-72
2023/04/30 12:02:00;;;;;;;;;;;;;;;;;;5026451;28;19925;-72
2023/04/30 12:04:27;;;;;;;;;;;;;;;;;;5031597;28;19925;-72
2023/04/30 12:06:54;;;;;;;;;;;;;;;;;;5029482;28;19925;-72
2023/04/30 12:09:21;;;;;;;;;;;;;;;;;;5013064;28;20446;-73
2023/04/30 12:11:49;;;;;;;;;;;;;;;;;;5024358;28;19974;-72
2023/04/30 12:14:16;;;;;;;;;;;;;;;;;;5028332;28;19924;-72
2023/04/30 12:16:44;;;;;;;;;;;;;;;;;;5026553;28;19925;-72
2023/04/30 12:19:11;;;;;;;;;;;;;;;;;;5030978;28;19967;-72
2023/04/30 12:21:39;;;;;;;;;;;;;;;;;;5035508;28;19929;-72
2023/04/30 12:24:06;;;;;;;;;;;;;;;;;;5034830;28;20327;-71
2023/04/30 12:26:33;;;;;;;;;;;;;;;;;;5035078;28;19932;-72
2023/04/30 12:29:02;;;;;;;;;;;31.30;99.90;;;;;;5034530;28;19986;-73
2023/04/30 12:31:32;;;;;;;;;;;31.30;99.90;;;;;;5031267;28;19929;-72
2023/04/30 12:34:03;;;;;;;;;;;31.50;99.90;;;;;;5032715;28;19925;-70
2023/04/30 12:36:31;;;;;;;;;;;31.80;99.90;;;;;;5026739;28;20399;-73
2023/04/30 12:39:02;;;;;;;;;;;31.20;99.90;;;;;;5028805;28;19925;-72
2023/04/30 12:41:29;;;;;;;;;;;;;;;;;;5032118;28;19960;-72
2023/04/30 12:43:56;;;;;;;;;;;;;;;;;;5023226;28;19974;-73
2023/04/30 12:46:23;;;;;;;;;;;;;;;;;;5027731;28;19929;-73
2023/04/30 12:48:54;;;;;;;;;;;26.10;99.90;;;;;;5023278;28;19991;-72
2023/04/30 12:51:21;;;;;;;;;;;24.40;99.90;;;;;;5027458;28;19975;-72
2023/04/30 12:53:48;;;;;;;;;;;23.70;99.90;;;;;;5027952;28;19925;-77
2023/04/30 12:56:15;;;;;;;;;;;23.70;99.90;;;;;;5044788;28;20346;-69
2023/04/30 12:58:44;;;;;;;;;;;23.60;99.90;;;;;;5028668;28;19924;-70
2023/04/30 13:01:11;;;;;;;;;;;24.10;99.90;;;;;;5022977;28;19939;-78
2023/04/30 13:03:38;;;;;;;;;;;24.70;99.90;;;;;;5035579;28;20400;-75
2023/04/30 13:06:06;;;;;;;;;;;24.60;99.90;;;;;;5019817;28;19925;-75
2023/04/30 13:08:33;;;;;;;;;;;24.50;99.90;;;;;;5028436;28;20019;-75
2023/04/30 13:11:00;;;;;;;;;;;24.70;99.90;;;;;;5028585;28;19978;-76
2023/04/30 13:13:27;;;;;;;;;;;24.90;99.90;;;;;;5009666;28;19925;-77
2023/04/30 13:15:54;;;;;;;;;;;25.10;99.90;;;;;;5011330;28;20282;-75
2023/04/30 13:18:22;;;;;;;;;;;24.90;99.90;;;;;;5030135;28;21226;-76
2023/04/30 13:20:49;;;;;;;;;;;24.70;99.90;;;;;;5033437;28;20389;-76
2023/04/30 13:23:17;;;;;;;;;;;24.70;99.90;;;;;;5020203;28;19925;-75
2023/04/30 13:25:45;;;;;;;;;;;24.10;99.90;;;;;;5018683;28;19968;-76
2023/04/30 13:28:12;;;;;;;;;;;23.00;99.90;;;;;;5032620;28;19925;-76
2023/04/30 13:30:39;;;;;;;;;;;22.60;99.90;;;;;;5025355;28;19925;-76
2023/04/30 13:33:06;;;;;;;;;;;22.40;99.90;;;;;;5028459;28;19929;-76
2023/04/30 13:35:33;;;;;;;;;;;22.30;99.90;;;;;;5032531;28;19932;-76
2023/04/30 13:38:00;;;;;;;;;;;22.20;99.90;;;;;;5032662;28;19978;-76
2023/04/30 13:40:28;;;;;;;;;;;22.30;99.90;;;;;;5034198;28;19925;-76
2023/04/30 13:42:55;;;;;;;;;;;22.40;99.90;;;;;;5033582;28;19924;-76
2023/04/30 13:45:21;;;;;;;;;;;22.40;99.90;;;;;;5033852;28;19932;-77
2023/04/30 13:47:48;;;;;;;;;;;22.20;99.90;;;;;;5032893;28;20281;-75
2023/04/30 13:50:15;;;;;;;;;;;22.10;99.90;;;;;;5029491;28;19925;-76
2023/04/30 13:52:42;;;;;;;;;;;22.10;99.90;;;;;;5019285;28;19925;-75
2023/04/30 13:55:09;;;;;;;;;;;22.30;99.90;;;;;;5023326;28;19925;-76
2023/04/30 13:57:38;;;;;;;;;;;23.00;99.90;;;;;;5018060;28;19925;-77
2023/04/30 14:00:06;;;;;;;;;;;24.40;99.90;;;;;;5021481;28;19925;-74
2023/04/30 14:02:34;;;;;;;;;;;26.00;99.90;;;;;;5046162;28;19925;-76
2023/04/30 14:05:02;;;;;;;;;;;26.70;99.90;;;;;;5021873;28;19933;-74
2023/04/30 14:07:29;;;;;;;;;;;27.20;99.90;;;;;;5025820;28;19925;-76
2023/04/30 14:09:56;;;;;;;;;;;27.20;99.90;;;;;;5018734;28;19925;-76
2023/04/30 14:12:23;;;;;;;;;;;26.60;99.90;;;;;;5030274;28;19925;-76
2023/04/30 14:14:51;;;;;;;;;;;25.60;99.90;;;;;;5031072;28;19932;-75
2023/04/30 14:17:18;;;;;;;;;;;24.30;99.90;;;;;;5037071;28;19925;-75
2023/04/30 14:19:45;;;;;;;;;;;23.70;99.90;;;;;;5028370;28;19924;-75
2023/04/30 14:22:12;;;;;;;;;;;23.40;99.90;;;;;;5031221;28;19932;-76
2023/04/30 14:24:39;;;;;;;;;;;23.00;99.90;;;;;;5030472;28;19958;-76
2023/04/30 14:27:06;;;;;;;;;;;22.70;99.90;;;;;;5022218;28;19971;-76
2023/04/30 14:29:32;;;;;;;;;;;22.50;99.90;;;;;;5033758;28;19928;-75
2023/04/30 14:32:01;;;;;;;;;;;22.20;99.90;;;;;;5028883;28;20277;-75
2023/04/30 14:34:28;;;;;;;;;;;22.10;99.90;;;;;;5030394;28;20364;-76
2023/04/30 14:36:58;;;;;;;;;;;21.90;99.90;;;;;;5023616;28;19925;-76
2023/04/30 14:39:25;;;;;;;;;;;21.90;99.90;;;;;;5030272;28;19925;-75
2023/04/30 14:41:51;;;;;;;;;;;22.10;99.90;;;;;;5033643;28;19935;-75
2023/04/30 14:44:19;;;;;;;;;;;23.70;99.90;;;;;;5022896;28;19933;-76
2023/04/30 14:46:45;;;;;;;;;;;25.30;99.90;;;;;;5031067;28;19931;-76
2023/04/30 14:49:14;;;;;;;;;;;26.90;99.90;;;;;;5032953;28;19928;-76
2023/04/30 14:51:40;;;;;;;;;;;28.00;99.90;;;;;;5029469;28;19970;-76
2023/04/30 14:54:07;;;;;;;;;;;29.20;99.90;;;;;;5030989;28;19947;-77
2023/04/30 14:56:34;;;;;;;;;;;29.50;99.90;;;;;;5035840;28;19925;-77
2023/04/30 14:59:02;;;;;;;;;;;29.30;99.90;;;;;;5033510;28;19929;-76
2023/04/30 15:01:29;;;;;;;;;;;29.50;99.90;;;;;;5027852;28;19941;-76
2023/04/30 15:03:55;;;;;;;;;;;29.80;99.90;;;;;;5033954;28;20016;-77
2023/04/30 15:06:24;;;;;;;;;;;29.30;99.90;;;;;;5022679;28;20379;-77
2023/04/30 15:08:51;;;;;;;;;;;29.20;99.90;;;;;;5022896;28;19929;-77
2023/04/30 15:11:18;;;;;;;;;;;28.50;99.90;;;;;;5027747;28;20436;-76
2023/04/30 15:13:45;;;;;;;;;;;28.10;99.90;;;;;;5026720;28;19924;-76
2023/04/30 15:16:12;;;;;;;;;;;;;;;;;;5018459;28;19979;-76
2023/04/30 15:18:40;;;;;;;;;;;;;;;;;;5024909;28;19925;-76
2023/04/30 15:21:07;;;;;;;;;;;;;;;;;;5026675;28;19929;-74
2023/04/30 15:23:34;;;;;;;;;;;;;;;;;;5030144;28;19925;-76
2023/04/30 15:26:02;;;;;;;;;;;;;;;;;;5022355;28;19983;-75
2023/04/30 15:28:29;;;;;;;;;;;;;;;;;;5046607;28;19929;-74
2023/04/30 15:30:56;;;;;;;;;;;;;;;;;;5025276;28;19925;-75
2023/04/30 15:33:26;;;;;;;;;;;;;;;;;;5015122;28;19925;-75
2023/04/30 15:35:53;;;;;;;;;;;;;;;;;;5024093;28;19925;-78
2023/04/30 15:38:20;;;;;;;;;;;;;;;;;;5030357;28;19925;-73
2023/04/30 15:40:47;;;;;;;;;;;;;;;;;;5026293;28;19925;-71
2023/04/30 15:43:15;;;;;;;;;;;;;;;;;;5041325;28;19925;-70
2023/04/30 15:45:44;;;;;;;;;;;;;;;;;;5026840;28;20007;-71
2023/04/30 15:48:11;;;;;;;;;;;;;;;;;;5018089;28;20408;-70
2023/04/30 15:50:38;;;;;;;;;;;;;;;;;;5033863;28;19932;-70
2023/04/30 15:53:05;;;;;;;;;;;;;;;;;;5021032;28;19929;-69
2023/04/30 15:55:33;;;;;;;;;;;;;;;;;;5019624;28;19968;-70
2023/04/30 15:58:00;;;;;;;;;;;;;;;;;;5026349;28;20001;-71
2023/04/30 16:00:28;;;;;;;;;;;;;;;;;;5025286;28;19956;-69
2023/04/30 16:02:55;;;;;;;;;;;;;;;;;;5021129;28;19961;-70
2023/04/30 16:05:22;;;;;;;;;;;;;;;;;;5022577;28;20374;-70
2023/04/30 16:07:49;;;;;;;;;;;;;;;;;;5019053;28;19925;-70
2023/04/30 16:10:18;;;;;;;;;;;;;;;;;;5024598;28;19925;-69
2023/04/30 16:12:45;;;;;;;;;;;;;;;;;;5017079;28;19932;-69
2023/04/30 16:15:12;;;;;;;;;;;;;;;;;;5027036;28;19932;-69